Delta Virtual Airport Information Service

Nice Cote d'Azur Airport

ICAO: LFMN Country: France
Latitude: 43.6653 Longitude: 7.215
Latest Arrival : DAC6996 (HESH-LFMN) Latest Departure : DAC6996 (LFMN-LSZH)


WX CaptureLIVE
Data provided by noaa.gov | Fetched at 15:30:47

METAR : LFMN 152000Z 10002KT CAVOK 26/22 Q1011 NOSIG

TAF : LFMN 152000Z 1521/1703 13003KT CAVOK BECMG 1521/1523 VRB03KT BECMG 1601/1603 02010KT PROB40 TEMPO 1603/1609 BKN014 BECMG 1608/1610 14010KT BECMG 1621/1623 VRB03KT


Runway Data for LFMN
Data provided by openaviationdata.com

Runway ID Mag Var Hdg Length Elevation Surface ILS Freq ILS Id ILS Slope
04L 0 44° 8754 ft 12 ft Asphalt 109.95 NI 3
04R 0 44° 9713 ft 12 ft Asphalt 110.7 NA 3
22L 0 224° 9713 ft 12 ft Asphalt -- -- --
22R 0 224° 8754 ft 12 ft Asphalt -- -- --

Nice Cote d'Azur Airport, France
Use only for reference purposes



Not for navigational purposes.